createdAt,value
2023-02-05T00:03:58.439Z,86.10
2023-02-05T00:08:57.562Z,85.02
2023-02-05T00:13:56.657Z,83.61
2023-02-05T00:18:58.239Z,83.49
2023-02-05T00:23:57.070Z,82.43
2023-02-05T00:28:55.813Z,82.11
2023-02-05T00:33:56.051Z,80.79
2023-02-05T00:38:55.151Z,79.25
2023-02-05T00:43:53.914Z,78.23
2023-02-05T00:48:52.645Z,77.28
2023-02-05T00:53:52.960Z,75.81
2023-02-05T00:58:51.770Z,75.44
2023-02-05T01:03:50.657Z,74.10
2023-02-05T01:08:49.589Z,72.12
2023-02-05T01:13:49.808Z,71.04
2023-02-05T01:18:48.634Z,71.99
2023-02-05T01:23:47.417Z,70.86
2023-02-05T01:28:47.195Z,70.76
2023-02-05T01:33:47.519Z,70.15
2023-02-05T01:38:46.360Z,69.91
2023-02-05T01:43:45.170Z,70.08
2023-02-05T01:48:47.910Z,69.71
2023-02-05T01:53:49.765Z,69.68
2023-02-05T01:58:53.629Z,70.08
2023-02-05T02:03:53.098Z,69.82
2023-02-05T02:08:53.866Z,69.92
2023-02-05T02:13:56.352Z,69.60
2023-02-05T02:18:55.913Z,70.56
2023-02-05T02:24:13.930Z,70.75
2023-02-05T02:29:19.676Z,70.15
2023-02-05T02:34:22.236Z,68.57
2023-02-05T02:39:26.941Z,68.60
2023-02-05T02:44:34.792Z,67.70
2023-02-05T02:49:39.370Z,67.92
2023-02-05T02:54:42.472Z,67.02
2023-02-05T02:59:47.293Z,66.06
2023-02-05T03:04:53.206Z,66.42
2023-02-05T03:10:00.450Z,66.02
2023-02-05T03:15:01.266Z,66.61
2023-02-05T03:20:05.168Z,65.88
2023-02-05T03:25:06.438Z,65.91
2023-02-05T03:30:10.293Z,66.01
2023-02-05T03:35:22.266Z,65.78
2023-02-05T03:40:26.505Z,64.87
2023-02-05T03:45:41.004Z,64.37
2023-02-05T03:50:45.169Z,63.59
2023-02-05T03:55:49.264Z,63.82
2023-02-05T04:00:50.369Z,62.85
2023-02-05T04:05:50.095Z,62.34
2023-02-05T04:10:50.912Z,61.60
2023-02-05T04:15:52.274Z,61.08
2023-02-05T04:20:51.250Z,60.75
2023-02-05T04:25:55.290Z,60.79
2023-02-05T04:31:03.147Z,60.16
2023-02-05T04:36:05.743Z,60.41
2023-02-05T04:41:05.030Z,59.42
2023-02-05T04:46:08.836Z,59.92
2023-02-05T04:51:08.952Z,60.11
2023-02-05T04:56:09.256Z,59.66
2023-02-05T05:01:15.682Z,59.00
2023-02-05T05:06:15.522Z,59.15
2023-02-05T05:11:16.098Z,58.45
2023-02-05T05:16:16.697Z,58.50
2023-02-05T05:21:15.592Z,58.96
2023-02-05T05:26:14.772Z,58.12
2023-02-05T05:31:19.799Z,57.79
2023-02-05T05:36:19.217Z,57.16
2023-02-05T05:41:39.264Z,57.67
2023-02-05T05:46:41.252Z,58.00
2023-02-05T05:51:40.206Z,57.13
2023-02-05T05:56:39.181Z,57.75
2023-02-05T06:01:39.690Z,57.06
2023-02-05T06:06:38.468Z,57.29
2023-02-05T06:11:37.246Z,56.50
2023-02-05T06:16:36.154Z,55.74
2023-02-05T06:21:36.541Z,55.59
2023-02-05T06:26:35.331Z,56.07
2023-02-05T06:31:34.374Z,55.66
2023-02-05T06:36:33.299Z,55.93
2023-02-05T06:41:33.472Z,55.97
2023-02-05T06:46:32.829Z,55.99
2023-02-05T06:51:31.839Z,56.31
2023-02-05T06:56:30.711Z,56.47
2023-02-05T07:01:31.196Z,56.74
2023-02-05T07:06:30.308Z,56.99
2023-02-05T07:11:29.220Z,56.29
2023-02-05T07:16:28.262Z,56.87
2023-02-05T07:21:28.633Z,56.44
2023-02-05T07:26:27.517Z,56.52
2023-02-05T07:31:27.086Z,57.14
2023-02-05T07:36:26.079Z,57.33
2023-02-05T07:41:29.649Z,57.15
2023-02-05T07:46:28.577Z,58.19
2023-02-05T07:51:27.770Z,57.87
2023-02-05T07:56:28.907Z,57.69
2023-02-05T08:01:29.079Z,57.12
2023-02-05T08:06:30.822Z,56.78
2023-02-05T08:11:32.605Z,56.50
2023-02-05T08:16:37.025Z,57.20
2023-02-05T08:21:36.506Z,56.46
2023-02-05T08:26:36.821Z,56.05
2023-02-05T08:31:35.995Z,55.71
2023-02-05T08:36:35.009Z,56.03
2023-02-05T08:41:33.952Z,54.64
2023-02-05T08:46:48.898Z,55.31
2023-02-05T08:51:49.482Z,53.49
2023-02-05T08:56:51.318Z,54.09
2023-02-05T09:01:52.507Z,53.58
2023-02-05T09:06:51.423Z,50.93
2023-02-05T09:11:50.661Z,48.58
2023-02-05T09:16:49.763Z,48.20
2023-02-05T09:21:50.049Z,47.69
2023-02-05T09:26:49.592Z,46.60
2023-02-05T09:31:49.109Z,45.42
2023-02-05T09:36:49.738Z,44.04
2023-02-05T09:41:57.103Z,41.50
2023-02-05T09:47:05.802Z,40.65
2023-02-05T09:52:13.621Z,39.63
2023-02-05T09:57:17.643Z,38.76
2023-02-05T10:02:26.444Z,39.20
2023-02-05T10:07:38.610Z,37.58
2023-02-05T10:12:49.591Z,37.79
2023-02-05T10:18:01.450Z,38.26
2023-02-05T10:23:15.351Z,37.19
2023-02-05T10:28:25.678Z,36.36
2023-02-05T10:33:42.348Z,36.57
2023-02-05T10:38:45.258Z,37.57
2023-02-05T10:43:50.586Z,37.34
2023-02-05T10:48:55.764Z,36.16
2023-02-05T10:53:56.319Z,37.00
2023-02-05T10:58:56.866Z,36.85
2023-02-05T11:04:01.728Z,36.61
2023-02-05T11:09:30.252Z,35.86
2023-02-05T11:14:42.145Z,36.39
2023-02-05T11:19:41.443Z,37.05
2023-02-05T11:24:42.771Z,37.20
2023-02-05T11:29:42.104Z,37.35
2023-02-05T11:34:41.132Z,36.91
2023-02-05T11:39:42.496Z,36.88
2023-02-05T11:44:51.397Z,37.43
2023-02-05T11:49:52.523Z,38.34
2023-02-05T11:54:53.198Z,38.38
2023-02-05T11:59:57.590Z,36.95
2023-02-05T12:05:02.305Z,37.34
2023-02-05T12:10:03.227Z,37.54
2023-02-05T12:15:11.906Z,37.53
2023-02-05T12:20:22.783Z,37.40
2023-02-05T12:25:30.004Z,37.99
2023-02-05T12:31:00.313Z,38.42
2023-02-05T12:36:12.608Z,38.84
2023-02-05T12:41:24.819Z,38.95
2023-02-05T12:46:45.278Z,38.67
2023-02-05T12:51:54.235Z,39.48
2023-02-05T12:57:02.747Z,40.75
2023-02-05T13:02:12.083Z,40.63
2023-02-05T13:07:20.046Z,41.06
2023-02-05T13:12:28.348Z,42.02
2023-02-05T13:17:32.888Z,41.84
2023-02-05T13:23:08.547Z,42.34
2023-02-05T13:28:42.731Z,42.64
2023-02-05T13:33:41.946Z,42.23
2023-02-05T13:38:57.571Z,42.37
2023-02-05T13:44:17.656Z,42.75
2023-02-05T13:49:44.137Z,43.10
2023-02-05T13:55:08.748Z,43.28
2023-02-05T14:00:15.573Z,42.34
2023-02-05T14:05:16.198Z,42.52
2023-02-05T14:10:28.300Z,42.21
2023-02-05T14:15:41.068Z,43.30
2023-02-05T14:20:44.738Z,43.19
2023-02-05T14:26:11.927Z,43.12
2023-02-05T14:31:59.095Z,43.49
2023-02-05T14:36:58.508Z,44.15
2023-02-05T14:41:59.668Z,44.31
2023-02-05T14:47:20.714Z,44.41
2023-02-05T14:52:36.722Z,44.56
2023-02-05T14:57:43.841Z,44.24
2023-02-05T15:03:21.756Z,43.42
2023-02-05T15:08:30.608Z,43.57
2023-02-05T15:13:29.783Z,45.14
2023-02-05T15:18:31.495Z,45.14
2023-02-05T15:23:38.795Z,45.51
2023-02-05T15:28:42.218Z,45.67
2023-02-05T15:33:50.162Z,46.33
2023-02-05T15:38:58.100Z,46.97
2023-02-05T15:44:03.162Z,47.12
2023-02-05T15:49:09.967Z,47.46
2023-02-05T15:54:21.985Z,47.29
2023-02-05T15:59:27.231Z,47.27
2023-02-05T16:04:31.460Z,47.75
2023-02-05T16:09:34.902Z,47.19
2023-02-05T16:14:38.618Z,46.70
2023-02-05T16:19:54.436Z,47.42
2023-02-05T16:25:21.941Z,46.31
2023-02-05T16:30:32.060Z,46.70
2023-02-05T16:35:52.113Z,46.61
2023-02-05T16:40:57.359Z,46.50
2023-02-05T16:46:26.434Z,47.45
2023-02-05T16:51:48.362Z,47.41
2023-02-05T16:56:56.087Z,47.18
2023-02-05T17:01:55.643Z,49.08
2023-02-05T17:06:58.306Z,49.64
2023-02-05T17:12:43.081Z,50.11
2023-02-05T17:17:50.673Z,50.09
2023-02-05T17:23:14.945Z,50.22
2023-02-05T17:28:21.706Z,49.69
2023-02-05T17:33:23.165Z,49.25
2023-02-05T17:38:24.524Z,48.64
2023-02-05T17:43:25.687Z,48.29
2023-02-05T17:48:25.826Z,48.36
2023-02-05T17:53:33.668Z,47.26
2023-02-05T17:58:39.743Z,46.95
2023-02-05T18:03:39.951Z,47.11
2023-02-05T18:08:40.394Z,46.91
2023-02-05T18:13:48.860Z,46.20
2023-02-05T18:18:52.194Z,46.01
2023-02-05T18:23:53.739Z,45.94
2023-02-05T18:28:55.102Z,45.70
2023-02-05T18:33:54.613Z,46.06
2023-02-05T18:38:53.998Z,46.22
2023-02-05T18:44:00.620Z,46.26
2023-02-05T18:49:16.271Z,46.10
2023-02-05T18:54:45.816Z,46.05
2023-02-05T18:59:48.542Z,46.37
2023-02-05T19:04:52.272Z,46.71
2023-02-05T19:09:51.906Z,46.72
2023-02-05T19:14:57.110Z,49.09
2023-02-05T19:20:00.185Z,54.87
2023-02-05T19:25:01.360Z,56.38
2023-02-05T19:30:04.928Z,55.79
2023-02-05T19:35:06.237Z,57.38
2023-02-05T19:40:06.761Z,58.93
2023-02-05T19:45:08.020Z,60.96
2023-02-05T19:50:07.211Z,60.75
2023-02-05T19:55:06.586Z,59.97
2023-02-05T20:00:08.083Z,60.52
2023-02-05T20:05:11.210Z,60.86
2023-02-05T20:10:10.404Z,61.38
2023-02-05T20:15:11.886Z,61.09
2023-02-05T20:20:24.892Z,60.54
2023-02-05T20:25:27.055Z,61.29
2023-02-05T20:30:45.151Z,62.71
2023-02-05T20:35:43.972Z,62.60
2023-02-05T20:40:42.796Z,63.67
2023-02-05T20:45:43.008Z,65.47
2023-02-05T20:50:41.798Z,65.83
2023-02-05T20:55:42.671Z,65.14
2023-02-05T21:00:42.980Z,64.56
2023-02-05T21:05:41.943Z,63.76
2023-02-05T21:10:40.889Z,65.05
2023-02-05T21:15:39.964Z,64.29
2023-02-05T21:20:40.274Z,64.95
2023-02-05T21:25:39.020Z,64.37
2023-02-05T21:30:38.354Z,65.32
2023-02-05T21:35:40.016Z,67.08
2023-02-05T21:40:39.304Z,68.28
2023-02-05T21:45:38.081Z,67.99
2023-02-05T21:50:40.855Z,67.77
2023-02-05T21:55:39.819Z,67.41
2023-02-05T22:00:38.621Z,68.63
2023-02-05T22:05:37.463Z,68.57
2023-02-05T22:10:37.589Z,67.55
2023-02-05T22:15:36.550Z,67.57
2023-02-05T22:20:35.651Z,70.54
2023-02-05T22:25:34.567Z,69.79
2023-02-05T22:30:35.344Z,69.55
2023-02-05T22:35:34.978Z,69.27
2023-02-05T22:40:34.487Z,69.43
2023-02-05T22:45:34.984Z,69.26
2023-02-05T22:50:37.946Z,69.51
2023-02-05T22:55:37.538Z,70.00
2023-02-05T23:00:37.792Z,70.06
2023-02-05T23:05:36.999Z,68.98
2023-02-05T23:10:35.918Z,70.16
2023-02-05T23:15:37.975Z,70.73
2023-02-05T23:20:36.703Z,71.67
2023-02-05T23:25:37.590Z,70.12
2023-02-05T23:30:38.137Z,69.51
2023-02-05T23:35:37.355Z,69.43
2023-02-05T23:40:36.206Z,68.32
2023-02-05T23:45:35.200Z,68.84
2023-02-05T23:50:36.175Z,68.89
2023-02-05T23:55:39.844Z,69.09
